AYPY (Port Moresby Jacksons International Airport)      (ORBX PNG)

 RUNWAY INFORMATION
Runway Number 14L Runway Length 9022 ft Runway Width 148 ft
Runway Elevation 103 ft Runway Displaced Threshold 0 ft Runway Surface Asphalt
Runway Number 32R Runway Length 9022 ft Runway Width 148 ft
Runway Elevation 128 ft Runway Displaced Threshold 0 ft Runway Surface Asphalt
Runway Number 14R Runway Length 6777 ft Runway Width 148 ft
Runway Elevation 104 ft Runway Displaced Threshold 0 ft Runway Surface Asphalt
Runway Number 32L Runway Length 6777 ft Runway Width 148 ft
Runway Elevation 146 ft Runway Displaced Threshold 0 ft Runway Surface Asphalt

  METAR AND TAF INFORMATION
METAR FOR AYPY
ADDS - METARS form results

(0700 UTC 20 April 2018)
Data provider: http://aviationweather.gov/adds/metars/
 
Forecast for: AYPY (PORT MORESBY INT, PG)
Text: TAF AMD AYPY 200540Z 2006/2106 14012KT 9999 -SHRA SCT020 SCT035
Forecast period: 0600 to 0900 UTC 20 April 2018
Forecast type: FROM: standard forecast or significant change
Winds: from the SE (140 degrees) at 14 MPH (12 knots; 6.2 m/s)
Visibility: 6 or more miles (10+ km)
Clouds: scattered clouds at 2000 feet AGL
scattered clouds at 3500 feet AGL
Weather: -SHRA  (light rain showers)
Forecast for: AYPY (PORT MORESBY INT, PG)
Text: TAF AMD AYPY 200540Z 2006/2106 14012KT 9999 -SHRA SCT020 SCT035
Forecast period: 0600 to 0900 UTC 20 April 2018
Forecast type: FROM: standard forecast or significant change
Winds: from the SE (140 degrees) at 14 MPH (12 knots; 6.2 m/s)
Visibility: 6 or more miles (10+ km)
Clouds: scattered clouds at 2000 feet AGL
scattered clouds at 3500 feet AGL
Weather: -SHRA  (light rain showers)
Forecast for: AYPY (PORT MORESBY INT, PG)
Text: TAF AMD AYPY 200540Z 2006/2106 14012KT 9999 -SHRA SCT020 SCT035
Forecast period: 0900 to 1400 UTC 20 April 2018
Forecast type: FROM: standard forecast or significant change
Winds: from the WNW (300 degrees) at 6 MPH (5 knots; 2.6 m/s)
Visibility: 6 or more miles (10+ km)
Ceiling: 3000 feet AGL
Clouds: scattered clouds at 2000 feet AGL
broken clouds at 3000 feet AGL
Weather: -SHRA  (light rain showers)
Forecast for: AYPY (PORT MORESBY INT, PG)
Text: TAF AMD AYPY 200540Z 2006/2106 14012KT 9999 -SHRA SCT020 SCT035
Forecast period: 0900 to 1400 UTC 20 April 2018
Forecast type: FROM: standard forecast or significant change
Winds: from the WNW (300 degrees) at 6 MPH (5 knots; 2.6 m/s)
Visibility: 6 or more miles (10+ km)
Ceiling: 3000 feet AGL
Clouds: scattered clouds at 2000 feet AGL
broken clouds at 3000 feet AGL
Weather: -SHRA  (light rain showers)
Forecast for: AYPY (PORT MORESBY INT, PG)
Text: TAF AMD AYPY 200540Z 2006/2106 14012KT 9999 -SHRA SCT020 SCT035
Forecast period: 1400 UTC 20 April 2018 to 0000 UTC 21 April 2018
Forecast type: FROM: standard forecast or significant change
Winds: from the WNW (300 degrees) at 6 MPH (5 knots; 2.6 m/s)
Visibility: 6 or more miles (10+ km)
Clouds: scattered clouds at 2000 feet AGL
Weather: no significant weather forecast for this period
Forecast for: AYPY (PORT MORESBY INT, PG)
Text: TAF AMD AYPY 200540Z 2006/2106 14012KT 9999 -SHRA SCT020 SCT035
Forecast period: 1400 UTC 20 April 2018 to 0000 UTC 21 April 2018
Forecast type: FROM: standard forecast or significant change
Winds: from the WNW (300 degrees) at 6 MPH (5 knots; 2.6 m/s)
Visibility: 6 or more miles (10+ km)
Clouds: scattered clouds at 2000 feet AGL
Weather: no significant weather forecast for this period
Forecast for: AYPY (PORT MORESBY INT, PG)
Text: TAF AMD AYPY 200540Z 2006/2106 14012KT 9999 -SHRA SCT020 SCT035
Forecast period: 0000 to 0600 UTC 21 April 2018
Forecast type: FROM: standard forecast or significant change
Winds: from the SE (140 degrees) at 12 MPH (10 knots; 5.2 m/s)
Visibility: 6 or more miles (10+ km)
Clouds: scattered clouds at 2000 feet AGL
scattered clouds at 3500 feet AGL
Weather: no significant weather forecast for this period
Forecast for: AYPY (PORT MORESBY INT, PG)
Text: TAF AMD AYPY 200540Z 2006/2106 14012KT 9999 -SHRA SCT020 SCT035
Forecast period: 0000 to 0600 UTC 21 April 2018
Forecast type: FROM: standard forecast or significant change
Winds: from the SE (140 degrees) at 12 MPH (10 knots; 5.2 m/s)
Visibility: 6 or more miles (10+ km)
Clouds: scattered clouds at 2000 feet AGL
scattered clouds at 3500 feet AGL
Weather: no significant weather forecast for this period
Forecast for: AYPY (PORT MORESBY INT, PG)
Text: TAF AMD AYPY 200540Z 2006/2106 14012KT 9999 -SHRA SCT020 SCT035
Forecast period: 1800 to 2200 UTC 20 April 2018
Forecast type: PROBABLE: 30 percent likelihood of the following during this time
Visibility: 0.31 miles (0.50 km)
Weather: FG  (fog)
Forecast for: AYPY (PORT MORESBY INT, PG)
Text: TAF AMD AYPY 200540Z 2006/2106 14012KT 9999 -SHRA SCT020 SCT035
Forecast period: 1800 to 2200 UTC 20 April 2018
Forecast type: PROBABLE: 30 percent likelihood of the following during this time
Visibility: 0.31 miles (0.50 km)
Weather: FG  (fog)
Forecast for: AYPY (PORT MORESBY INT, PG)
Text: TAF AMD AYPY 200540Z 2006/2106 14012KT 9999 -SHRA SCT020 SCT035
Forecast period: 0800 to 1400 UTC 20 April 2018
Forecast type: TEMPORARY: The following changes expected for less than half the time period
Winds: variable direction winds at 17 MPH (15 knots; 7.8 m/s)
gusting to 29 MPH (25 knots; 13.0 m/s)
Visibility: 0.62 miles (1.00 km)
Ceiling: 1000 feet AGL
Clouds: few clouds at 500 feet AGL
broken clouds at 1000 feet AGL
scattered clouds at 2000 feet AGL
Weather: TSRA  (rain associated with thunderstorm(s))
Forecast for: AYPY (PORT MORESBY INT, PG)
Text: TAF AMD AYPY 200540Z 2006/2106 14012KT 9999 -SHRA SCT020 SCT035
Forecast period: 0800 to 1400 UTC 20 April 2018
Forecast type: TEMPORARY: The following changes expected for less than half the time period
Winds: variable direction winds at 17 MPH (15 knots; 7.8 m/s)
gusting to 29 MPH (25 knots; 13.0 m/s)
Visibility: 0.62 miles (1.00 km)
Ceiling: 1000 feet AGL
Clouds: few clouds at 500 feet AGL
broken clouds at 1000 feet AGL
scattered clouds at 2000 feet AGL
Weather: TSRA  (rain associated with thunderstorm(s))

 AIRPORT FREQUENCIES
Type APP Name JACKSONS A Frequency 125.8 MHZ
Type ATIS Name ATIS Frequency 117 MHZ
Type GND Name JACKSONS G Frequency 121.7 MHZ
Type TWR Name JACKSONS T Frequency 118.1 MHZ

 NEARBY NAVIGATION AIDS
Type NDB Name Jackson Frequency 380 KHZ
Type NDB Name Parer Frequency 395 KHZ
Type VOR-DME Name Port Moresby Frequency 117000 KHZ
Type NDB Name Port Moresby Frequency 368 KHZ



Powered by Virtual Airlines Manager